Time;durP1;ratioP1;P1;durP2;ratioP2;P2;SDS_P1;SDS_P2;PMS_P1;PMS_P2;Temp;Humidity;BMP_temperature;BMP_pressure;BME280_temperature;BME280_humidity;BME280_pressure;Samples;Min_cycle;Max_cycle;Signal;HPM_P1;HPM_P2
2022/01/24 00:00:23;;;;;;;28.83;18.45;;;4.00;80.30;;;1.74;94.16;97598.72;4908255;29;20044;-62
2022/01/24 00:02:49;;;;;;;26.63;18.48;;;4.00;80.40;;;1.76;94.38;97602.03;4934496;28;20400;-62
2022/01/24 00:05:17;;;;;;;27.92;18.38;;;4.00;80.40;;;1.77;94.46;97597.69;4928005;28;20035;-62
2022/01/24 00:07:43;;;;;;;27.35;19.13;;;4.00;80.30;;;1.77;93.86;97602.88;4930056;29;20357;-62
2022/01/24 00:10:14;;;;;;;24.90;17.63;;;3.90;80.20;;;1.77;93.89;97595.91;4939077;28;20070;-61
2022/01/24 00:13:07;;;;;;;26.38;18.92;;;4.00;80.50;;;1.78;94.31;97589.81;4917746;28;20130;-62
2022/01/24 00:15:56;;;;;;;25.77;17.40;;;4.00;80.60;;;1.78;94.03;97594.16;4924093;28;20028;-62
2022/01/24 00:18:35;;;;;;;27.48;18.88;;;4.00;80.50;;;1.78;94.24;97601.94;4930666;29;20035;-67
2022/01/24 00:29:08;;;;;;;31.23;19.95;;;3.90;80.70;;;1.70;93.93;97586.03;4932794;28;20039;-67
2022/01/24 00:31:33;;;;;;;30.02;19.35;;;3.80;80.70;;;1.68;93.97;97588.72;4936086;29;20050;-67
2022/01/24 00:33:59;;;;;;;29.35;20.17;;;3.80;80.90;;;1.66;93.90;97590.59;4932120;28;20027;-67
2022/01/24 00:36:25;;;;;;;29.48;19.63;;;3.80;81.00;;;1.62;93.87;97589.13;4928718;29;20420;-67
2022/01/24 00:38:51;;;;;;;31.35;22.17;;;3.80;81.00;;;1.59;93.74;97578.97;4943115;28;20515;-68
2022/01/24 00:41:19;;;;;;;31.33;20.25;;;3.70;81.20;;;1.56;93.77;97588.66;4949032;28;20034;-67
2022/01/24 00:46:42;;;;;;;33.55;21.05;;;3.60;81.30;;;1.44;93.91;97585.09;4917102;28;20038;-67
2022/01/24 00:54:43;;;;;;;31.90;20.98;;;3.30;81.50;;;1.20;94.48;97583.09;4934319;28;20049;-68
2022/01/24 00:57:10;;;;;;;33.80;21.67;;;3.30;81.70;;;1.15;94.10;97581.72;4932364;29;20038;-67
2022/01/24 00:59:35;;;;;;;31.42;21.25;;;3.20;82.10;;;1.10;94.70;97589.75;4923210;29;20400;-67
2022/01/24 01:02:01;;;;;;;34.20;21.92;;;3.10;82.20;;;1.04;94.90;97582.38;4950542;28;20039;-67
2022/01/24 01:04:37;;;;;;;33.53;22.73;;;3.10;82.30;;;1.01;95.12;97572.19;4919320;29;20035;-67
2022/01/24 01:07:06;;;;;;;34.53;21.45;;;3.10;82.50;;;0.95;94.40;97582.94;4936297;28;20114;-67
2022/01/24 01:20:36;;;;;;;37.28;22.90;;;2.80;82.80;;;0.66;95.53;97563.13;4937672;28;20134;-67
2022/01/24 01:23:02;;;;;;;36.42;22.67;;;2.70;83.10;;;0.60;95.49;97556.56;4934985;29;20046;-67
2022/01/24 01:25:28;;;;;;;34.85;22.50;;;2.60;83.00;;;0.55;95.56;97551.66;4966771;28;20091;-67
2022/01/24 01:27:56;;;;;;;38.15;23.55;;;2.60;83.00;;;0.50;94.64;97556.28;4950543;28;20067;-67
2022/01/24 01:30:33;;;;;;;35.85;22.50;;;2.40;83.00;;;0.45;95.72;97550.53;4924303;28;20032;-67
2022/01/24 01:33:10;;;;;;;39.38;22.90;;;2.40;83.40;;;0.38;95.61;97545.81;4927814;28;20051;-67
2022/01/24 01:57:15;;;;;;;36.72;21.35;;;2.10;82.50;;;-0.03;95.54;97555.06;4936369;28;20035;-66
2022/01/24 01:59:40;;;;;;;34.55;21.65;;;2.10;82.40;;;-0.07;94.49;97557.91;4950161;28;20027;-67
2022/01/24 02:02:06;;;;;;;40.35;22.48;;;2.00;82.20;;;-0.11;94.64;97562.44;4949896;28;20578;-67
2022/01/24 02:04:32;;;;;;;36.50;21.88;;;1.90;82.20;;;-0.16;94.92;97561.84;4950150;28;20118;-67
2022/01/24 02:06:58;;;;;;;38.03;22.02;;;1.90;82.60;;;-0.19;94.64;97562.03;4933861;28;20039;-67
2022/01/24 02:09:32;;;;;;;38.67;22.27;;;1.90;82.60;;;-0.22;95.01;97554.47;4949458;28;20043;-67
2022/01/24 02:11:58;;;;;;;41.17;24.17;;;1.90;82.80;;;-0.23;95.17;97555.34;4949884;28;20051;-67
2022/01/24 02:14:30;;;;;;;37.13;22.35;;;1.90;83.00;;;-0.24;95.35;97543.34;4949428;28;20629;-67
2022/01/24 02:17:02;;;;;;;40.25;23.00;;;1.90;83.00;;;-0.26;95.15;97540.00;4919823;28;20051;-67
2022/01/24 02:24:32;;;;;;;38.75;22.73;;;1.80;83.40;;;-0.31;95.12;97521.34;4934302;28;20046;-67
2022/01/24 02:26:59;;;;;;;36.33;22.58;;;1.80;83.50;;;-0.35;95.30;97519.84;4932092;28;20514;-67
2022/01/24 02:31:55;;;;;;;37.22;22.70;;;1.60;83.80;;;-0.43;96.15;97511.72;4949733;28;20046;-67
2022/01/24 02:34:24;;;;;;;38.78;22.60;;;1.60;83.70;;;-0.45;95.95;97514.38;4948970;28;20035;-67
2022/01/24 02:36:49;;;;;;;38.72;23.58;;;1.60;83.80;;;-0.45;95.55;97513.56;4914418;28;20474;-67
2022/01/24 02:49:55;;;;;;;38.70;21.98;;;1.60;83.80;;;-0.50;96.03;97505.22;4933627;29;20046;-67
2022/01/24 02:52:24;;;;;;;35.33;21.48;;;1.60;83.80;;;-0.51;95.87;97495.78;4962812;28;20044;-67
2022/01/24 02:54:50;;;;;;;38.45;22.13;;;1.50;83.60;;;-0.55;95.98;97491.72;4930286;28;20027;-66
2022/01/24 02:57:16;;;;;;;35.97;21.48;;;1.50;83.60;;;-0.56;95.77;97495.22;4901836;29;20110;-67
2022/01/24 02:59:42;;;;;;;60.88;35.78;;;1.50;83.50;;;-0.59;96.25;97487.66;4932678;28;20077;-67
2022/01/24 03:02:08;;;;;;;117.38;72.57;;;1.50;83.70;;;-0.60;96.12;97484.22;4965248;28;20515;-67
2022/01/24 03:04:34;;;;;;;84.40;51.25;;;1.50;83.50;;;-0.60;95.98;97484.22;4897862;29;20118;-67
2022/01/24 03:07:00;;;;;;;50.28;29.63;;;1.50;83.70;;;-0.63;96.35;97487.81;4946243;28;20047;-66
2022/01/24 03:09:25;;;;;;;37.85;23.20;;;1.50;83.70;;;-0.64;95.97;97480.16;4947768;28;20050;-67
2022/01/24 03:12:08;;;;;;;36.30;20.60;;;1.40;83.70;;;-0.65;96.14;97481.91;4948899;28;20102;-67
2022/01/24 03:14:35;;;;;;;39.15;22.83;;;1.50;83.80;;;-0.67;96.39;97478.56;4941990;28;20112;-67
2022/01/24 03:17:02;;;;;;;43.35;26.02;;;1.40;83.70;;;-0.68;96.21;97479.50;4913626;29;20058;-67
2022/01/24 03:19:27;;;;;;;53.85;32.40;;;1.40;83.90;;;-0.68;96.08;97470.88;4929896;28;20047;-67
2022/01/24 03:21:53;;;;;;;103.93;60.40;;;1.40;83.70;;;-0.70;96.17;97468.38;4945564;28;20468;-67
2022/01/24 03:24:19;;;;;;;119.05;73.75;;;1.40;83.80;;;-0.70;96.50;97465.81;4948517;28;20542;-67
2022/01/24 03:26:45;;;;;;;67.10;40.90;;;1.40;83.80;;;-0.72;96.36;97475.38;4932491;28;20043;-67
2022/01/24 03:29:11;;;;;;;55.10;32.33;;;1.40;83.90;;;-0.72;96.48;97475.38;4965025;28;20038;-67
2022/01/24 03:31:37;;;;;;;54.95;34.67;;;1.40;83.60;;;-0.72;96.51;97472.81;4945590;28;20138;-67
2022/01/24 03:34:03;;;;;;;79.82;49.20;;;1.40;83.70;;;-0.72;96.14;97469.41;4948616;28;20153;-66
2022/01/24 03:36:28;;;;;;;76.30;47.22;;;1.30;83.50;;;-0.75;96.52;97472.97;4947145;28;20028;-71
2022/01/24 03:38:54;;;;;;;51.30;31.15;;;1.40;83.60;;;-0.76;96.17;97462.75;4927278;28;20114;-69
2022/01/24 03:41:20;;;;;;;33.53;21.73;;;1.30;83.60;;;-0.80;96.20;97462.09;4950098;28;20023;-67
2022/01/24 03:43:46;;;;;;;33.30;19.70;;;1.30;83.60;;;-0.80;96.43;97467.25;4932648;29;20031;-68
2022/01/24 03:46:24;;;;;;;33.20;19.02;;;1.30;83.50;;;-0.81;96.26;97470.75;4947889;28;20043;-70
2022/01/24 03:48:53;;;;;;;29.13;17.90;;;1.20;83.20;;;-0.83;95.75;97464.84;4939967;28;20051;-66
2022/01/24 03:51:20;;;;;;;31.13;17.58;;;1.20;83.40;;;-0.85;95.92;97464.09;4944804;28;20110;-67
2022/01/24 03:53:46;;;;;;;94.45;50.63;;;1.20;83.30;;;-0.86;95.59;97461.59;4960224;28;20034;-67
2022/01/24 03:56:14;;;;;;;75.65;42.88;;;1.20;82.80;;;-0.90;95.65;97466.09;4946936;28;20031;-66
2022/01/24 03:58:41;;;;;;;37.50;21.40;;;1.10;83.00;;;-0.91;95.74;97464.41;4928210;28;20071;-66
2022/01/24 04:01:08;;;;;;;28.13;17.08;;;1.10;83.00;;;-0.95;95.59;97462.91;4936167;28;20036;-66
2022/01/24 04:03:34;;;;;;;31.70;18.88;;;1.10;82.80;;;-0.98;95.54;97452.75;4946813;28;20042;-67
2022/01/24 04:06:00;;;;;;;28.65;17.08;;;1.10;82.80;;;-1.00;95.19;97450.28;4927667;28;20045;-67
2022/01/24 04:08:26;;;;;;;27.00;16.60;;;1.10;82.70;;;-1.05;95.52;97441.13;4916584;29;20110;-67
2022/01/24 04:10:55;;;;;;;28.75;17.60;;;1.10;82.70;;;-1.08;95.35;97442.13;4947445;28;20032;-67
2022/01/24 04:13:37;;;;;;;28.65;16.90;;;1.00;82.70;;;-1.08;95.25;97451.63;4948704;28;20062;-67
2022/01/24 04:18:43;;;;;;;30.05;17.38;;;1.00;82.90;;;-1.12;95.23;97442.38;4948402;28;20433;-67
2022/01/24 04:24:10;;;;;;;29.58;17.45;;;1.00;83.00;;;-1.19;95.65;97446.19;4950236;28;20046;-67
2022/01/24 04:26:37;;;;;;;33.28;17.63;;;0.90;83.20;;;-1.21;95.95;97445.44;4936735;28;20047;-67
2022/01/24 04:29:04;;;;;;;29.73;17.77;;;0.90;83.30;;;-1.21;95.78;97445.44;4935300;28;20045;-66
2022/01/24 04:31:29;;;;;;;160.18;90.78;;;0.90;83.60;;;-1.21;96.36;97445.44;4951679;28;20558;-67
2022/01/24 04:33:55;;;;;;;68.32;40.50;;;0.90;83.90;;;-1.21;96.00;97437.69;4951191;28;20082;-67
2022/01/24 04:36:21;;;;;;;40.70;24.83;;;1.00;83.90;;;-1.24;96.15;97439.53;4934577;29;20035;-67
2022/01/24 04:38:47;;;;;;;34.05;21.05;;;1.00;83.80;;;-1.21;96.48;97442.88;4950179;28;20043;-67
2022/01/24 04:41:26;;;;;;;32.47;18.98;;;0.90;83.90;;;-1.22;96.55;97442.03;4935115;29;20038;-67
2022/01/24 04:56:39;;;;;;;76.25;47.03;;;0.80;84.20;;;-1.28;96.95;97450.13;4949247;28;20110;-66
2022/01/24 04:59:05;;;;;;;72.63;44.53;;;0.90;84.00;;;-1.31;96.50;97456.28;4930971;28;20039;-66
2022/01/24 05:01:31;;;;;;;61.97;37.80;;;0.80;84.00;;;-1.30;96.73;97451.94;4963474;28;20035;-66
2022/01/24 05:03:56;;;;;;;85.30;52.45;;;0.80;84.10;;;-1.31;96.85;97456.28;4948047;28;20035;-66
2022/01/24 05:06:22;;;;;;;44.08;26.58;;;0.80;84.20;;;-1.31;96.65;97445.13;4950823;28;20074;-66
2022/01/24 05:08:48;;;;;;;36.85;22.60;;;0.80;84.20;;;-1.31;96.76;97453.69;4936304;28;20115;-66
2022/01/24 05:11:19;;;;;;;36.28;21.02;;;0.80;84.20;;;-1.29;96.80;97456.19;4950725;28;20176;-66
2022/01/24 05:24:43;;;;;;;33.28;19.98;;;0.80;83.60;;;-1.40;96.34;97459.34;4934898;28;20039;-67
2022/01/24 05:27:08;;;;;;;33.50;19.98;;;0.70;83.50;;;-1.42;96.62;97458.59;4934855;28;20074;-66
2022/01/24 05:29:34;;;;;;;36.20;21.13;;;0.70;83.50;;;-1.42;96.44;97457.75;4934713;28;20408;-66
2022/01/24 05:32:00;;;;;;;36.92;21.35;;;0.70;83.60;;;-1.42;96.71;97458.59;4950605;28;20055;-66
2022/01/24 05:34:26;;;;;;;36.30;21.75;;;0.70;83.70;;;-1.41;96.42;97464.59;4917650;29;20114;-66
2022/01/24 05:36:51;;;;;;;36.80;20.90;;;0.70;83.70;;;-1.42;96.69;97461.16;4951384;28;20096;-66
2022/01/24 05:39:17;;;;;;;34.75;21.00;;;0.70;83.80;;;-1.43;96.45;97462.09;4921523;28;20170;-66
2022/01/24 05:41:43;;;;;;;37.25;21.30;;;0.70;83.90;;;-1.42;96.60;97461.16;4937406;28;20142;-66
2022/01/24 05:44:09;;;;;;;37.08;22.27;;;0.70;84.00;;;-1.42;96.64;97458.59;4969436;28;20462;-66
2022/01/24 05:46:35;;;;;;;34.70;21.40;;;0.70;84.00;;;-1.40;96.62;97458.50;4918196;29;20652;-66
2022/01/24 05:49:01;;;;;;;35.75;22.42;;;0.80;84.20;;;-1.39;96.93;97453.25;4919180;28;20046;-67
2022/01/24 05:51:29;;;;;;;38.03;22.38;;;0.80;84.40;;;-1.39;97.15;97458.41;4950153;28;20043;-67
2022/01/24 05:53:55;;;;;;;35.20;22.33;;;0.70;84.80;;;-1.38;97.31;97448.94;4919581;29;20071;-67
2022/01/24 05:56:21;;;;;;;37.28;22.92;;;0.80;84.70;;;-1.37;97.26;97451.44;4914765;29;20038;-67
2022/01/24 05:58:46;;;;;;;35.22;21.60;;;0.80;84.60;;;-1.36;97.52;97453.13;4930193;28;20032;-66
2022/01/24 06:01:12;;;;;;;38.17;22.23;;;0.80;84.60;;;-1.35;97.34;97448.78;4931047;28;20049;-66
2022/01/24 06:03:38;;;;;;;37.95;23.05;;;0.80;84.60;;;-1.33;97.46;97452.13;4930744;28;20032;-67
2022/01/24 06:06:03;;;;;;;36.35;22.13;;;0.80;84.40;;;-1.33;97.28;97452.94;4949449;28;20038;-67
2022/01/24 06:08:29;;;;;;;37.22;21.40;;;0.80;84.60;;;-1.32;97.60;97449.44;4946344;28;20114;-67
2022/01/24 06:10:58;;;;;;;36.20;22.58;;;0.90;84.60;;;-1.33;97.99;97458.13;4945017;28;20058;-67
2022/01/24 06:13:27;;;;;;;33.80;21.73;;;0.90;84.60;;;-1.32;98.31;97464.94;4946140;28;20035;-66
2022/01/24 06:15:53;;;;;;;39.65;23.58;;;0.90;84.90;;;-1.32;97.78;97462.34;4946210;28;20112;-67
2022/01/24 06:18:20;;;;;;;36.83;23.40;;;0.90;84.80;;;-1.32;98.17;97467.53;4962258;28;20158;-66
2022/01/24 06:20:46;;;;;;;38.03;22.00;;;0.90;84.70;;;-1.31;98.12;97476.94;4946349;28;20047;-68
2022/01/24 06:23:13;;;;;;;57.13;35.10;;;0.90;84.90;;;-1.30;98.36;97482.94;4929398;29;20056;-67
2022/01/24 06:25:39;;;;;;;59.50;37.40;;;0.90;84.80;;;-1.30;97.96;97482.94;4922425;29;20042;-66
2022/01/24 06:28:05;;;;;;;65.97;41.33;;;0.90;84.50;;;-1.33;97.89;97486.50;4933604;28;20039;-67
2022/01/24 06:30:31;;;;;;;55.85;33.80;;;0.90;84.40;;;-1.33;97.67;97489.09;4933264;28;20042;-67
2022/01/24 06:32:56;;;;;;;66.68;39.63;;;0.80;84.40;;;-1.35;97.91;97483.19;4932794;28;20059;-66
2022/01/24 06:35:22;;;;;;;46.45;26.30;;;0.90;84.50;;;-1.33;98.00;97483.09;4949188;28;20038;-66
2022/01/24 06:37:48;;;;;;;39.63;23.30;;;0.90;84.80;;;-1.32;98.07;97489.91;4932339;28;20032;-66
2022/01/24 06:40:15;;;;;;;42.03;24.45;;;0.90;84.90;;;-1.29;98.42;97490.59;4941144;28;20044;-66
2022/01/24 06:42:40;;;;;;;44.28;24.45;;;0.90;85.20;;;-1.28;98.82;97481.91;4946618;28;20046;-66
2022/01/24 06:45:07;;;;;;;41.15;24.33;;;0.90;85.10;;;-1.25;99.18;97494.66;4952050;28;20117;-67
2022/01/24 06:47:33;;;;;;;41.63;24.17;;;1.00;85.20;;;-1.23;99.25;97505.75;4951780;28;20096;-66
2022/01/24 06:49:59;;;;;;;46.20;25.27;;;1.00;85.30;;;-1.20;99.39;97498.75;4936310;28;20521;-66
2022/01/24 06:52:24;;;;;;;40.92;23.83;;;1.10;85.40;;;-1.16;99.57;97501.06;4951977;28;20069;-66
2022/01/24 06:54:50;;;;;;;46.53;24.90;;;1.10;85.40;;;-1.14;99.32;97503.56;4947799;28;20054;-66
2022/01/24 06:57:16;;;;;;;44.33;25.42;;;1.10;85.20;;;-1.12;99.60;97502.59;4933237;28;20448;-66
2022/01/24 06:59:43;;;;;;;41.15;23.90;;;1.10;85.20;;;-1.11;99.59;97504.25;4916873;29;20090;-67
2022/01/24 07:02:09;;;;;;;44.45;24.30;;;1.20;85.10;;;-1.08;99.41;97504.09;4948927;28;20150;-67
2022/01/24 07:04:37;;;;;;;45.28;24.63;;;1.20;85.30;;;-1.06;99.61;97504.00;4932526;28;20510;-66
2022/01/24 07:07:04;;;;;;;43.47;24.83;;;1.20;85.30;;;-1.02;99.96;97502.91;4932737;28;20046;-66
2022/01/24 07:09:29;;;;;;;40.53;23.73;;;1.30;85.20;;;-1.01;99.26;97504.59;4931813;28;20106;-66
2022/01/24 07:11:56;;;;;;;45.17;24.23;;;1.20;84.80;;;-1.00;99.69;97504.50;4964619;28;20515;-66
2022/01/24 07:14:21;;;;;;;41.85;24.23;;;1.30;84.40;;;-1.00;99.44;97511.41;4932632;29;20044;-66
2022/01/24 07:19:31;;;;;;;42.03;23.27;;;1.30;84.00;;;-0.98;99.38;97507.00;4948565;28;20393;-65
2022/01/24 07:21:59;;;;;;;44.78;23.80;;;1.30;84.00;;;-0.99;99.16;97521.66;4963327;28;20054;-66
2022/01/24 07:24:25;;;;;;;44.17;24.20;;;1.30;84.00;;;-0.98;98.50;97514.75;4916694;29;20047;-66
2022/01/24 07:26:51;;;;;;;43.78;24.90;;;1.30;83.70;;;-0.97;98.90;97516.41;4932002;28;20046;-66
2022/01/24 07:29:17;;;;;;;48.72;24.35;;;1.30;83.70;;;-0.98;98.97;97515.56;4932820;28;20090;-66
2022/01/24 07:31:43;;;;;;;49.83;26.25;;;1.40;83.60;;;-0.98;98.53;97515.56;4932841;28;20259;-66
2022/01/24 07:34:09;;;;;;;44.15;25.10;;;1.30;83.20;;;-1.00;98.45;97516.59;4948515;28;20042;-66
2022/01/24 07:36:35;;;;;;;46.83;25.10;;;1.40;83.10;;;-0.99;98.39;97518.25;4932253;28;20031;-66
2022/01/24 07:39:00;;;;;;;47.97;25.17;;;1.30;82.90;;;-0.99;98.28;97518.25;4932004;28;20177;-66
2022/01/24 07:41:29;;;;;;;41.63;23.65;;;1.30;82.90;;;-1.02;98.56;97521.00;4956272;28;20023;-66
2022/01/24 07:43:55;;;;;;;44.42;22.92;;;1.30;82.90;;;-1.00;97.99;97537.25;4960876;28;20089;-66
2022/01/24 07:46:21;;;;;;;41.45;23.90;;;1.40;82.80;;;-1.00;98.24;97532.06;4961949;28;20055;-66
2022/01/24 07:48:46;;;;;;;40.75;23.42;;;1.40;82.70;;;-0.97;97.86;97531.91;4951118;28;20533;-66
2022/01/24 07:51:12;;;;;;;39.05;22.73;;;1.50;82.50;;;-0.93;97.80;97538.56;4934571;28;20033;-66
2022/01/24 07:53:38;;;;;;;40.58;24.15;;;1.50;82.40;;;-0.87;97.83;97542.59;4932231;28;20055;-66
2022/01/24 07:56:04;;;;;;;38.90;23.05;;;1.60;82.30;;;-0.82;98.35;97549.16;4932360;28;20123;-66
2022/01/24 07:58:30;;;;;;;39.65;21.98;;;1.70;82.10;;;-0.81;97.94;97539.66;4935589;28;20031;-66
2022/01/24 08:00:56;;;;;;;36.30;22.50;;;1.60;82.00;;;-0.78;97.72;97537.75;4935861;28;20039;-66
2022/01/24 08:03:22;;;;;;;41.28;22.75;;;1.70;82.10;;;-0.75;97.60;97540.16;4936475;28;20086;-66
2022/01/24 08:05:48;;;;;;;40.03;21.48;;;1.70;82.00;;;-0.71;97.85;97541.66;4919842;29;20043;-66
2022/01/24 08:08:14;;;;;;;45.05;21.27;;;1.80;81.80;;;-0.71;97.76;97544.22;4968118;28;20043;-67
2022/01/24 08:10:39;;;;;;;47.50;19.73;;;1.80;81.60;;;-0.68;97.79;97544.09;4935703;28;20495;-66
2022/01/24 08:13:05;;;;;;;38.83;20.65;;;1.80;81.20;;;-0.63;97.36;97542.09;4920155;29;20039;-66
2022/01/24 08:15:31;;;;;;;36.35;21.10;;;1.90;81.10;;;-0.58;96.97;97546.16;4919812;29;20452;-66
2022/01/24 08:17:57;;;;;;;34.55;20.13;;;2.00;81.10;;;-0.54;96.98;97545.06;4967711;28;20530;-66
2022/01/24 08:20:23;;;;;;;33.45;20.67;;;2.00;80.90;;;-0.50;97.11;97541.38;4968007;28;20158;-66
2022/01/24 08:22:49;;;;;;;42.47;19.65;;;2.10;80.60;;;-0.48;96.93;97542.13;4931886;28;20177;-67
2022/01/24 08:25:15;;;;;;;30.80;19.73;;;2.20;80.10;;;-0.42;96.86;97549.56;4932147;28;20103;-66
2022/01/24 08:27:41;;;;;;;33.33;20.30;;;2.30;79.90;;;-0.37;97.05;97547.56;4916642;29;20031;-67
2022/01/24 08:30:16;;;;;;;31.35;20.08;;;2.30;79.80;;;-0.32;96.43;97540.38;4934000;28;20027;-65
2022/01/24 08:32:42;;;;;;;32.00;18.27;;;2.40;79.70;;;-0.26;96.57;97549.53;4917501;28;20036;-66
2022/01/24 08:35:08;;;;;;;36.78;18.27;;;2.40;79.10;;;-0.19;95.95;97543.94;4932354;28;20408;-65
2022/01/24 08:37:35;;;;;;;28.52;18.52;;;2.60;78.90;;;-0.14;95.74;97552.25;4924186;28;20572;-66
2022/01/24 08:40:00;;;;;;;30.92;18.83;;;2.60;78.70;;;-0.08;96.26;97559.66;4924929;28;20063;-66
2022/01/24 08:47:27;;;;;;;26.38;17.27;;;2.70;78.00;;;0.09;95.06;97570.81;4901467;29;20066;-67
2022/01/24 08:49:52;;;;;;;28.40;18.92;;;2.70;78.10;;;0.13;95.04;97569.69;4942147;29;20055;-66
2022/01/24 08:52:18;;;;;;;25.50;17.77;;;2.80;78.30;;;0.19;95.63;97577.09;4947680;28;20419;-66
2022/01/24 08:54:44;;;;;;;29.05;18.52;;;2.90;78.10;;;0.22;94.62;97579.50;4934677;28;20047;-66
2022/01/24 08:57:10;;;;;;;37.45;18.23;;;2.90;77.90;;;0.28;95.35;97577.41;4919635;29;20031;-65
2022/01/24 08:59:38;;;;;;;40.25;20.80;;;3.00;77.80;;;0.29;94.42;97575.66;4950865;28;20027;-65
2022/01/24 09:02:04;;;;;;;39.53;21.02;;;2.90;78.20;;;0.33;94.74;97579.75;4935964;28;20039;-66
2022/01/24 09:04:30;;;;;;;43.50;21.73;;;2.80;78.50;;;0.37;95.08;97586.41;4935165;28;20459;-66
2022/01/24 09:06:57;;;;;;;46.28;19.85;;;2.80;78.70;;;0.37;94.75;97576.03;4918630;28;20125;-66
2022/01/24 09:09:23;;;;;;;43.65;22.15;;;2.80;78.30;;;0.37;94.21;97570.88;4965963;28;20583;-66
2022/01/24 09:11:49;;;;;;;40.78;21.80;;;2.90;78.40;;;0.38;93.94;97580.28;4934963;29;20039;-66
2022/01/24 09:14:15;;;;;;;42.47;22.33;;;2.80;78.00;;;0.39;93.92;97584.53;4950967;28;20035;-67
2022/01/24 09:16:41;;;;;;;44.20;23.05;;;2.90;78.20;;;0.43;94.23;97580.84;4950421;28;20090;-67
2022/01/24 09:19:06;;;;;;;46.78;24.08;;;3.00;78.30;;;0.46;94.43;97585.88;4966862;28;20027;-67
2022/01/24 09:21:34;;;;;;;48.65;23.92;;;3.10;78.20;;;0.48;93.70;97581.44;4966617;28;20156;-66
2022/01/24 09:24:03;;;;;;;42.42;23.58;;;3.10;77.70;;;0.55;93.86;97582.72;4951094;28;20043;-66
2022/01/24 09:26:29;;;;;;;41.10;22.35;;;3.20;77.90;;;0.65;94.20;97583.00;4935137;28;20045;-67
2022/01/24 09:28:55;;;;;;;42.83;23.77;;;3.30;77.40;;;0.70;93.79;97573.22;4934435;28;20036;-66
2022/01/24 09:31:22;;;;;;;40.65;22.15;;;3.40;76.90;;;0.79;94.09;97579.59;4934835;28;20061;-66
2022/01/24 09:33:49;;;;;;;36.15;21.67;;;3.50;76.50;;;0.88;92.69;97586.81;4934824;28;20443;-67
2022/01/24 09:36:15;;;;;;;38.90;22.92;;;3.60;76.30;;;0.95;92.87;97588.13;4934346;28;20094;-67
2022/01/24 09:38:40;;;;;;;38.17;22.75;;;3.70;75.90;;;1.03;92.88;97591.06;4918517;28;20039;-67
2022/01/24 09:41:07;;;;;;;39.53;23.10;;;3.70;76.00;;;1.09;93.01;97585.50;4942699;28;20027;-67
2022/01/24 09:43:33;;;;;;;46.05;24.50;;;3.80;75.80;;;1.11;92.70;97588.84;4963841;28;20109;-66
2022/01/24 09:45:59;;;;;;;43.92;26.25;;;3.70;75.70;;;1.09;92.09;97589.84;4937709;28;20125;-66
2022/01/24 09:48:25;;;;;;;43.80;25.13;;;3.50;76.40;;;1.13;92.01;97592.19;4953887;28;20031;-66
2022/01/24 09:50:52;;;;;;;41.53;25.23;;;3.70;76.40;;;1.16;92.46;97581.63;4947940;28;20505;-66
2022/01/24 09:53:19;;;;;;;42.15;23.75;;;3.80;75.90;;;1.23;91.95;97590.69;4950708;28;20086;-66
2022/01/24 09:55:45;;;;;;;41.95;25.30;;;3.90;75.80;;;1.31;91.92;97591.97;4950216;28;20078;-66
2022/01/24 09:58:11;;;;;;;45.50;26.20;;;4.00;75.80;;;1.33;91.79;97588.34;4934726;28;20031;-66
2022/01/24 10:00:37;;;;;;;45.75;25.77;;;4.00;75.60;;;1.37;91.62;97599.38;4934321;28;20090;-66
2022/01/24 10:03:03;;;;;;;51.58;28.08;;;3.90;75.50;;;1.39;91.66;97594.94;4934017;28;20039;-66
2022/01/24 10:05:35;;;;;;;46.03;26.48;;;4.00;75.60;;;1.38;90.97;97595.84;4949222;28;20407;-66
2022/01/24 10:08:06;;;;;;;41.33;25.15;;;3.90;75.60;;;1.44;91.55;97595.47;4949460;28;20043;-66
2022/01/24 10:10:39;;;;;;;44.55;25.88;;;4.10;75.80;;;1.51;91.42;97601.94;4949909;28;20106;-66
2022/01/24 10:19:18;;;;;;;41.03;25.27;;;4.30;75.00;;;1.69;90.46;97585.22;4935671;28;20042;-66
2022/01/24 10:21:50;;;;;;;41.97;25.02;;;4.50;74.50;;;1.74;90.64;97583.16;4937948;28;20039;-66
2022/01/24 10:24:41;;;;;;;40.72;25.08;;;4.60;74.50;;;1.82;90.38;97588.69;4930345;28;20510;-66
2022/01/24 10:27:18;;;;;;;43.47;24.92;;;4.70;74.60;;;1.91;89.90;97589.03;4962260;28;20071;-66
2022/01/24 10:29:58;;;;;;;37.70;22.58;;;4.70;74.00;;;2.02;89.95;97581.38;4938010;28;20036;-67
2022/01/24 10:32:38;;;;;;;39.38;24.23;;;4.90;73.50;;;2.13;89.84;97578.91;4914167;28;20044;-67
2022/01/24 10:35:46;;;;;;;34.72;23.08;;;5.10;73.30;;;2.30;88.96;97576.06;4930327;28;20031;-67
2022/01/24 10:41:11;;;;;;;34.20;22.90;;;5.20;72.00;;;2.50;89.04;97576.50;4917818;28;20614;-67
2022/01/24 10:43:39;;;;;;;34.15;23.10;;;5.30;72.30;;;2.56;88.79;97571.72;4930759;29;20028;-67
2022/01/24 10:46:05;;;;;;;32.65;23.55;;;5.40;72.30;;;2.63;88.83;97574.72;4899337;29;20031;-66
2022/01/24 10:48:33;;;;;;;33.83;23.27;;;5.50;71.80;;;2.71;88.29;97575.03;4880404;29;20055;-67
2022/01/24 10:51:23;;;;;;;34.30;23.88;;;5.60;71.40;;;2.78;87.06;97581.50;4897547;29;20733;-66
2022/01/24 10:53:55;;;;;;;32.40;22.67;;;5.70;71.30;;;2.88;87.42;97572.13;4927669;29;20110;-66
2022/01/24 10:56:37;;;;;;;30.38;23.05;;;6.00;70.70;;;3.02;86.79;97564.22;4899084;29;20035;-66
2022/01/24 10:59:11;;;;;;;28.98;21.60;;;6.00;70.40;;;3.10;86.27;97561.06;4914154;28;20137;-66
2022/01/24 11:01:38;;;;;;;28.90;21.80;;;6.00;70.00;;;3.16;86.87;97562.41;4931891;28;20062;-66
2022/01/24 11:04:08;;;;;;;29.98;22.88;;;6.10;69.00;;;3.43;85.56;97563.09;4899476;29;20043;-66
2022/01/24 11:06:37;;;;;;;28.08;21.55;;;8.20;64.30;;;3.81;86.55;97562.09;4914293;29;20242;-66
2022/01/24 11:09:21;;;;;;;26.88;20.00;;;9.20;60.30;;;4.17;84.01;97559.41;4930028;28;20167;-66
2022/01/24 11:11:47;;;;;;;25.92;19.88;;;8.70;60.10;;;4.33;85.37;97555.69;4930379;29;20042;-66
2022/01/24 11:14:16;;;;;;;25.65;19.27;;;8.30;60.90;;;4.46;84.35;97554.63;4930121;29;20032;-66
2022/01/24 11:16:42;;;;;;;22.55;17.50;;;8.80;60.40;;;4.77;83.71;97558.38;4929898;28;20036;-66
2022/01/24 11:19:14;;;;;;;22.05;17.15;;;9.40;57.50;;;4.88;81.78;97555.75;4898510;29;20035;-66
2022/01/24 11:21:42;;;;;;;21.02;16.98;;;8.80;57.70;;;4.96;81.44;97541.28;4900168;29;20107;-67
2022/01/24 11:24:08;;;;;;;21.35;17.85;;;8.90;58.30;;;5.04;80.37;97552.81;4899298;29;20087;-67
2022/01/24 11:26:37;;;;;;;21.27;17.30;;;8.90;57.40;;;5.12;78.81;97547.00;4898452;29;20119;-66
2022/01/24 11:29:04;;;;;;;20.45;16.73;;;9.10;57.80;;;5.30;79.04;97548.16;4901556;28;20713;-66
2022/01/24 11:31:35;;;;;;;22.13;17.00;;;9.60;56.30;;;5.70;77.19;97550.22;4949113;28;20028;-66
2022/01/24 11:34:08;;;;;;;22.08;17.17;;;11.30;51.40;;;5.94;77.18;97537.84;4933780;28;20431;-64
2022/01/24 11:36:39;;;;;;;21.17;16.02;;;11.40;50.80;;;6.34;76.04;97537.19;4933377;28;20584;-65
2022/01/24 11:39:05;;;;;;;;;;;12.80;47.20;;;6.68;71.95;97536.00;4949396;28;20114;-65
2022/01/24 11:41:35;;;;;;;19.83;15.50;;;13.90;43.90;;;6.90;78.43;97534.19;4922379;28;20001;-65
2022/01/24 11:44:15;;;;;;;19.00;15.50;;;12.80;45.60;;;7.13;73.31;97533.03;4937011;28;20061;-65
2022/01/24 11:46:52;;;;;;;21.35;17.20;;;12.50;46.30;;;7.18;72.68;97532.63;4952901;28;20630;-65
2022/01/24 11:49:24;;;;;;;23.63;17.55;;;12.00;47.10;;;7.10;71.88;97525.47;4938231;28;20478;-65
2022/01/24 11:52:00;;;;;;;22.17;17.52;;;11.00;49.40;;;6.97;73.46;97527.47;4954125;28;20129;-65
2022/01/24 11:55:13;;;;;;;21.98;17.15;;;10.50;51.50;;;6.78;69.74;97524.75;4918802;29;20031;-65
2022/01/24 11:57:40;;;;;;;21.60;17.17;;;10.10;52.30;;;6.67;73.19;97523.06;4938045;28;20403;-65
2022/01/24 12:00:06;;;;;;;21.90;16.23;;;10.40;51.20;;;6.60;72.80;97517.53;4933439;28;20118;-65
2022/01/24 12:02:56;;;;;;;24.10;17.50;;;10.30;51.60;;;6.56;69.34;97518.72;4948795;28;20039;-66
2022/01/24 12:05:29;;;;;;;20.27;15.25;;;10.40;51.70;;;6.51;70.56;97520.91;4907480;29;20039;-66
2022/01/24 12:07:58;;;;;;;20.58;15.93;;;10.10;51.90;;;6.44;70.75;97515.38;4923834;29;20035;-66
2022/01/24 12:10:25;;;;;;;20.52;16.10;;;9.90;52.40;;;6.42;71.61;97512.06;4933266;28;20047;-66
2022/01/24 12:13:14;;;;;;;21.35;16.55;;;10.40;51.50;;;6.45;69.95;97510.97;4949630;28;20065;-66